sensor_id;sensor_type;location;lat;lon;timestamp;temperature;humidity
47921;DHT22;33686;48.770;9.186;2023-04-03T05:13:28;3.80;99.90
47921;DHT22;33686;48.770;9.186;2023-04-03T05:15:55;3.80;99.90
47921;DHT22;33686;48.770;9.186;2023-04-03T05:18:21;3.80;99.90
47921;DHT22;33686;48.770;9.186;2023-04-03T05:20:48;3.80;99.90
47921;DHT22;33686;48.770;9.186;2023-04-03T05:23:14;3.80;99.90
47921;DHT22;33686;48.770;9.186;2023-04-03T05:25:40;3.80;99.90
47921;DHT22;33686;48.770;9.186;2023-04-03T05:28:07;3.80;99.90
47921;DHT22;33686;48.770;9.186;2023-04-03T05:30:33;3.90;99.90
47921;DHT22;33686;48.770;9.186;2023-04-03T05:33:02;3.90;99.90
47921;DHT22;33686;48.770;9.186;2023-04-03T05:35:36;3.80;99.90
47921;DHT22;33686;48.770;9.186;2023-04-03T05:38:05;3.80;99.90
47921;DHT22;33686;48.770;9.186;2023-04-03T05:40:32;3.80;99.90
47921;DHT22;33686;48.770;9.186;2023-04-03T05:42:57;3.90;99.90
47921;DHT22;33686;48.770;9.186;2023-04-03T05:45:25;3.90;99.90
47921;DHT22;33686;48.770;9.186;2023-04-03T05:47:51;3.90;99.90
47921;DHT22;33686;48.770;9.186;2023-04-03T05:50:17;3.90;99.90
47921;DHT22;33686;48.770;9.186;2023-04-03T05:52:44;3.90;99.90
47921;DHT22;33686;48.770;9.186;2023-04-03T05:55:12;4.00;99.90
47921;DHT22;33686;48.770;9.186;2023-04-03T05:57:38;3.90;99.90
47921;DHT22;33686;48.770;9.186;2023-04-03T06:00:05;4.00;99.90
47921;DHT22;33686;48.770;9.186;2023-04-03T06:02:39;4.10;99.90
47921;DHT22;33686;48.770;9.186;2023-04-03T06:05:06;4.20;99.90
47921;DHT22;33686;48.770;9.186;2023-04-03T06:07:34;4.20;99.90
47921;DHT22;33686;48.770;9.186;2023-04-03T06:10:00;4.10;99.90
47921;DHT22;33686;48.770;9.186;2023-04-03T06:12:26;4.10;99.90
47921;DHT22;33686;48.770;9.186;2023-04-03T06:14:54;4.30;99.90
47921;DHT22;33686;48.770;9.186;2023-04-03T06:17:19;4.30;99.90
47921;DHT22;33686;48.770;9.186;2023-04-03T06:19:46;4.20;99.90
47921;DHT22;33686;48.770;9.186;2023-04-03T06:22:12;4.20;99.90
47921;DHT22;33686;48.770;9.186;2023-04-03T06:24:38;4.10;99.90
47921;DHT22;33686;48.770;9.186;2023-04-03T06:27:04;4.10;99.90
47921;DHT22;33686;48.770;9.186;2023-04-03T06:29:29;4.00;99.90
47921;DHT22;33686;48.770;9.186;2023-04-03T06:31:55;4.00;99.90
47921;DHT22;33686;48.770;9.186;2023-04-03T06:34:21;4.00;99.90
47921;DHT22;33686;48.770;9.186;2023-04-03T06:36:46;4.00;99.90
47921;DHT22;33686;48.770;9.186;2023-04-03T06:39:16;3.90;99.90
47921;DHT22;33686;48.770;9.186;2023-04-03T06:41:42;4.00;99.90
47921;DHT22;33686;48.770;9.186;2023-04-03T06:44:08;4.00;99.90
47921;DHT22;33686;48.770;9.186;2023-04-03T06:46:37;4.00;99.90
47921;DHT22;33686;48.770;9.186;2023-04-03T06:49:03;4.00;99.90
47921;DHT22;33686;48.770;9.186;2023-04-03T06:51:29;4.10;99.90
47921;DHT22;33686;48.770;9.186;2023-04-03T06:53:56;4.00;99.90
47921;DHT22;33686;48.770;9.186;2023-04-03T06:56:22;4.10;99.90
47921;DHT22;33686;48.770;9.186;2023-04-03T06:58:48;4.10;99.90
47921;DHT22;33686;48.770;9.186;2023-04-03T07:01:15;4.20;99.90
47921;DHT22;33686;48.770;9.186;2023-04-03T07:03:40;4.30;99.90
47921;DHT22;33686;48.770;9.186;2023-04-03T07:06:07;4.00;99.90
47921;DHT22;33686;48.770;9.186;2023-04-03T07:08:33;4.00;99.90
47921;DHT22;33686;48.770;9.186;2023-04-03T07:10:59;4.10;99.90
47921;DHT22;33686;48.770;9.186;2023-04-03T07:13:24;4.10;99.90
47921;DHT22;33686;48.770;9.186;2023-04-03T07:15:50;4.20;99.90
47921;DHT22;33686;48.770;9.186;2023-04-03T07:18:16;4.10;99.90
47921;DHT22;33686;48.770;9.186;2023-04-03T07:20:42;4.00;99.90
47921;DHT22;33686;48.770;9.186;2023-04-03T07:23:08;4.00;99.90
47921;DHT22;33686;48.770;9.186;2023-04-03T07:25:34;3.90;99.90
47921;DHT22;33686;48.770;9.186;2023-04-03T07:27:59;4.20;99.90
47921;DHT22;33686;48.770;9.186;2023-04-03T07:30:25;4.30;99.90
47921;DHT22;33686;48.770;9.186;2023-04-03T07:32:51;4.60;99.90
47921;DHT22;33686;48.770;9.186;2023-04-03T07:35:17;4.70;99.90
47921;DHT22;33686;48.770;9.186;2023-04-03T07:37:43;4.70;99.90
47921;DHT22;33686;48.770;9.186;2023-04-03T07:40:08;4.70;99.90
47921;DHT22;33686;48.770;9.186;2023-04-03T07:42:34;4.70;99.90
47921;DHT22;33686;48.770;9.186;2023-04-03T07:45:00;4.40;99.90
47921;DHT22;33686;48.770;9.186;2023-04-03T07:47:26;4.70;99.90
47921;DHT22;33686;48.770;9.186;2023-04-03T07:49:51;5.20;99.90
47921;DHT22;33686;48.770;9.186;2023-04-03T07:52:17;5.20;99.90
47921;DHT22;33686;48.770;9.186;2023-04-03T07:54:42;5.20;99.90
47921;DHT22;33686;48.770;9.186;2023-04-03T07:57:08;4.90;99.90
47921;DHT22;33686;48.770;9.186;2023-04-03T07:59:34;4.60;99.90
47921;DHT22;33686;48.770;9.186;2023-04-03T08:01:59;4.90;99.90
47921;DHT22;33686;48.770;9.186;2023-04-03T08:04:25;5.00;99.90
47921;DHT22;33686;48.770;9.186;2023-04-03T08:06:51;4.90;99.90
47921;DHT22;33686;48.770;9.186;2023-04-03T08:09:17;5.00;99.90
47921;DHT22;33686;48.770;9.186;2023-04-03T08:11:43;5.20;99.90
47921;DHT22;33686;48.770;9.186;2023-04-03T08:14:09;5.00;99.90
47921;DHT22;33686;48.770;9.186;2023-04-03T08:16:40;5.20;99.90
47921;DHT22;33686;48.770;9.186;2023-04-03T08:19:06;5.30;99.90
47921;DHT22;33686;48.770;9.186;2023-04-03T08:21:32;5.40;99.90
47921;DHT22;33686;48.770;9.186;2023-04-03T08:23:58;5.00;99.90
47921;DHT22;33686;48.770;9.186;2023-04-03T08:26:23;4.90;99.90
47921;DHT22;33686;48.770;9.186;2023-04-03T08:28:49;5.00;99.90
47921;DHT22;33686;48.770;9.186;2023-04-03T08:31:16;4.80;99.90
47921;DHT22;33686;48.770;9.186;2023-04-03T08:33:43;4.70;99.90
47921;DHT22;33686;48.770;9.186;2023-04-03T08:36:20;4.90;99.90
47921;DHT22;33686;48.770;9.186;2023-04-03T08:38:46;4.90;99.90
47921;DHT22;33686;48.770;9.186;2023-04-03T08:41:29;4.90;99.90
47921;DHT22;33686;48.770;9.186;2023-04-03T08:49:36;5.20;99.90
47921;DHT22;33686;48.770;9.186;2023-04-03T08:52:13;5.30;99.90
47921;DHT22;33686;48.770;9.186;2023-04-03T08:54:53;5.70;99.90
47921;DHT22;33686;48.770;9.186;2023-04-03T08:57:26;5.70;99.90
47921;DHT22;33686;48.770;9.186;2023-04-03T08:59:53;5.70;99.90
47921;DHT22;33686;48.770;9.186;2023-04-03T09:04:47;5.60;99.90
47921;DHT22;33686;48.770;9.186;2023-04-03T09:07:14;5.60;99.90
47921;DHT22;33686;48.770;9.186;2023-04-03T09:09:43;5.70;99.90
47921;DHT22;33686;48.770;9.186;2023-04-03T09:12:15;5.40;99.90
47921;DHT22;33686;48.770;9.186;2023-04-03T09:20:04;5.80;99.90
47921;DHT22;33686;48.770;9.186;2023-04-03T09:22:34;5.80;99.90
47921;DHT22;33686;48.770;9.186;2023-04-03T09:25:14;5.70;99.90
47921;DHT22;33686;48.770;9.186;2023-04-03T09:27:41;5.70;99.90
47921;DHT22;33686;48.770;9.186;2023-04-03T09:30:17;5.30;99.90
47921;DHT22;33686;48.770;9.186;2023-04-03T09:32:46;5.10;99.90
47921;DHT22;33686;48.770;9.186;2023-04-03T09:37:51;5.40;99.90
47921;DHT22;33686;48.770;9.186;2023-04-03T09:42:54;5.50;99.90
47921;DHT22;33686;48.770;9.186;2023-04-03T09:45:24;5.60;99.90
47921;DHT22;33686;48.770;9.186;2023-04-03T09:47:56;5.70;99.90
47921;DHT22;33686;48.770;9.186;2023-04-03T09:50:28;5.70;99.90
47921;DHT22;33686;48.770;9.186;2023-04-03T09:52:54;5.50;99.90
47921;DHT22;33686;48.770;9.186;2023-04-03T09:55:21;5.50;99.90
47921;DHT22;33686;48.770;9.186;2023-04-03T09:57:59;5.50;99.90
47921;DHT22;33686;48.770;9.186;2023-04-03T10:00:26;5.40;99.90
47921;DHT22;33686;48.770;9.186;2023-04-03T10:02:53;5.50;99.90
47921;DHT22;33686;48.770;9.186;2023-04-03T10:05:33;5.40;99.90
47921;DHT22;33686;48.770;9.186;2023-04-03T10:10:41;5.50;99.90
47921;DHT22;33686;48.770;9.186;2023-04-03T10:13:10;5.40;99.90
47921;DHT22;33686;48.770;9.186;2023-04-03T10:15:41;5.40;99.90
47921;DHT22;33686;48.770;9.186;2023-04-03T10:18:24;5.70;99.90
47921;DHT22;33686;48.770;9.186;2023-04-03T10:20:53;5.60;99.90
47921;DHT22;33686;48.770;9.186;2023-04-03T10:28:31;5.80;99.90
47921;DHT22;33686;48.770;9.186;2023-04-03T10:33:51;5.70;99.90
47921;DHT22;33686;48.770;9.186;2023-04-03T10:36:36;5.60;99.90
47921;DHT22;33686;48.770;9.186;2023-04-03T10:44:36;5.50;99.90
47921;DHT22;33686;48.770;9.186;2023-04-03T10:52:17;5.70;99.90
47921;DHT22;33686;48.770;9.186;2023-04-03T10:55:01;5.80;99.90
47921;DHT22;33686;48.770;9.186;2023-04-03T10:57:27;5.90;99.90
47921;DHT22;33686;48.770;9.186;2023-04-03T11:00:07;5.90;99.90
47921;DHT22;33686;48.770;9.186;2023-04-03T11:02:43;5.90;99.90
47921;DHT22;33686;48.770;9.186;2023-04-03T11:07:40;5.80;99.90
47921;DHT22;33686;48.770;9.186;2023-04-03T11:10:15;5.90;99.90
47921;DHT22;33686;48.770;9.186;2023-04-03T11:12:46;6.00;99.90
47921;DHT22;33686;48.770;9.186;2023-04-03T11:15:15;6.00;99.90
47921;DHT22;33686;48.770;9.186;2023-04-03T11:17:54;6.10;99.90
47921;DHT22;33686;48.770;9.186;2023-04-03T11:20:27;6.10;99.90
47921;DHT22;33686;48.770;9.186;2023-04-03T11:23:01;6.10;99.90
47921;DHT22;33686;48.770;9.186;2023-04-03T11:25:29;6.20;99.90
47921;DHT22;33686;48.770;9.186;2023-04-03T11:27:59;6.10;99.90
47921;DHT22;33686;48.770;9.186;2023-04-03T11:30:27;6.10;99.90
47921;DHT22;33686;48.770;9.186;2023-04-03T11:35:37;6.20;99.90
47921;DHT22;33686;48.770;9.186;2023-04-03T11:38:10;6.10;99.90
47921;DHT22;33686;48.770;9.186;2023-04-03T11:40:39;5.90;99.90
47921;DHT22;33686;48.770;9.186;2023-04-03T11:43:28;6.00;99.90
47921;DHT22;33686;48.770;9.186;2023-04-03T11:45:56;6.00;99.90
47921;DHT22;33686;48.770;9.186;2023-04-03T11:50:59;6.00;99.90
47921;DHT22;33686;48.770;9.186;2023-04-03T11:53:27;5.90;99.90
47921;DHT22;33686;48.770;9.186;2023-04-03T11:55:54;5.90;99.90
47921;DHT22;33686;48.770;9.186;2023-04-03T12:00:53;6.20;99.90
47921;DHT22;33686;48.770;9.186;2023-04-03T12:05:49;6.00;99.90
47921;DHT22;33686;48.770;9.186;2023-04-03T12:09:00;6.30;99.90
47921;DHT22;33686;48.770;9.186;2023-04-03T12:13:37;6.10;99.90
47921;DHT22;33686;48.770;9.186;2023-04-03T12:16:18;6.30;99.90
47921;DHT22;33686;48.770;9.186;2023-04-03T12:21:17;6.00;99.90
47921;DHT22;33686;48.770;9.186;2023-04-03T12:23:57;6.10;99.90
47921;DHT22;33686;48.770;9.186;2023-04-03T12:26:27;6.00;99.90
47921;DHT22;33686;48.770;9.186;2023-04-03T12:28:55;6.10;99.90
47921;DHT22;33686;48.770;9.186;2023-04-03T12:31:22;6.20;99.90
47921;DHT22;33686;48.770;9.186;2023-04-03T12:36:36;6.30;99.90
47921;DHT22;33686;48.770;9.186;2023-04-03T12:39:11;6.30;99.90
47921;DHT22;33686;48.770;9.186;2023-04-03T12:46:50;6.10;99.90
47921;DHT22;33686;48.770;9.186;2023-04-03T12:51:54;6.40;99.90
47921;DHT22;33686;48.770;9.186;2023-04-03T12:54:26;6.60;99.90
47921;DHT22;33686;48.770;9.186;2023-04-03T12:56:52;6.60;99.90
47921;DHT22;33686;48.770;9.186;2023-04-03T12:59:58;6.70;99.90
47921;DHT22;33686;48.770;9.186;2023-04-03T13:03:07;6.40;99.90
47921;DHT22;33686;48.770;9.186;2023-04-03T13:05:47;6.50;99.90
47921;DHT22;33686;48.770;9.186;2023-04-03T13:08:13;6.50;99.90
47921;DHT22;33686;48.770;9.186;2023-04-03T13:10:47;6.70;99.90
47921;DHT22;33686;48.770;9.186;2023-04-03T13:13:14;6.80;99.90
47921;DHT22;33686;48.770;9.186;2023-04-03T13:15:42;6.70;99.90
47921;DHT22;33686;48.770;9.186;2023-04-03T13:20:51;6.70;99.90
47921;DHT22;33686;48.770;9.186;2023-04-03T13:23:17;6.80;99.90
47921;DHT22;33686;48.770;9.186;2023-04-03T13:25:46;6.80;99.90
47921;DHT22;33686;48.770;9.186;2023-04-03T13:28:17;6.70;99.90
47921;DHT22;33686;48.770;9.186;2023-04-03T13:30:59;6.70;99.90
47921;DHT22;33686;48.770;9.186;2023-04-03T13:33:28;6.70;99.90
47921;DHT22;33686;48.770;9.186;2023-04-03T13:35:54;6.80;99.90
47921;DHT22;33686;48.770;9.186;2023-04-03T13:38:22;7.00;99.90
47921;DHT22;33686;48.770;9.186;2023-04-03T13:40:50;6.70;99.90
47921;DHT22;33686;48.770;9.186;2023-04-03T13:43:19;6.60;99.90
47921;DHT22;33686;48.770;9.186;2023-04-03T13:45:55;7.00;99.90
47921;DHT22;33686;48.770;9.186;2023-04-03T13:48:21;7.10;99.90
47921;DHT22;33686;48.770;9.186;2023-04-03T13:53:20;6.90;99.90
47921;DHT22;33686;48.770;9.186;2023-04-03T13:55:59;7.10;99.90
47921;DHT22;33686;48.770;9.186;2023-04-03T13:58:26;6.80;99.90
47921;DHT22;33686;48.770;9.186;2023-04-03T14:00:53;7.00;99.90
47921;DHT22;33686;48.770;9.186;2023-04-03T14:03:33;7.10;99.90
47921;DHT22;33686;48.770;9.186;2023-04-03T14:06:06;7.20;99.60
47921;DHT22;33686;48.770;9.186;2023-04-03T14:08:33;6.80;99.90
47921;DHT22;33686;48.770;9.186;2023-04-03T14:10:59;6.90;99.90
47921;DHT22;33686;48.770;9.186;2023-04-03T14:13:25;6.60;99.90
47921;DHT22;33686;48.770;9.186;2023-04-03T14:15:51;6.70;99.90
47921;DHT22;33686;48.770;9.186;2023-04-03T14:18:18;6.60;99.90
47921;DHT22;33686;48.770;9.186;2023-04-03T14:20:43;6.80;99.90
47921;DHT22;33686;48.770;9.186;2023-04-03T14:23:09;6.80;99.90
47921;DHT22;33686;48.770;9.186;2023-04-03T14:25:36;6.80;99.90
47921;DHT22;33686;48.770;9.186;2023-04-03T14:28:06;6.80;99.90
47921;DHT22;33686;48.770;9.186;2023-04-03T14:30:37;6.70;99.90
47921;DHT22;33686;48.770;9.186;2023-04-03T14:33:03;6.80;99.90
47921;DHT22;33686;48.770;9.186;2023-04-03T14:35:29;6.70;99.90
47921;DHT22;33686;48.770;9.186;2023-04-03T14:37:54;6.60;99.90
47921;DHT22;33686;48.770;9.186;2023-04-03T14:40:22;6.90;99.90
47921;DHT22;33686;48.770;9.186;2023-04-03T14:42:48;7.10;99.40
47921;DHT22;33686;48.770;9.186;2023-04-03T14:45:14;7.30;99.20
47921;DHT22;33686;48.770;9.186;2023-04-03T14:47:42;7.40;99.00
47921;DHT22;33686;48.770;9.186;2023-04-03T14:50:11;7.10;98.60
47921;DHT22;33686;48.770;9.186;2023-04-03T14:52:40;7.10;99.20
47921;DHT22;33686;48.770;9.186;2023-04-03T14:55:06;7.20;99.40
47921;DHT22;33686;48.770;9.186;2023-04-03T14:57:32;7.00;99.20
47921;DHT22;33686;48.770;9.186;2023-04-03T14:59:57;6.80;99.20
47921;DHT22;33686;48.770;9.186;2023-04-03T15:02:28;6.70;99.30
47921;DHT22;33686;48.770;9.186;2023-04-03T15:04:54;6.70;99.70
47921;DHT22;33686;48.770;9.186;2023-04-03T15:07:20;6.70;99.50
47921;DHT22;33686;48.770;9.186;2023-04-03T15:09:45;6.90;99.30
47921;DHT22;33686;48.770;9.186;2023-04-03T15:12:11;6.90;99.20
47921;DHT22;33686;48.770;9.186;2023-04-03T15:14:37;6.90;99.30
47921;DHT22;33686;48.770;9.186;2023-04-03T15:17:03;6.90;98.90
47921;DHT22;33686;48.770;9.186;2023-04-03T15:19:31;6.80;98.80
47921;DHT22;33686;48.770;9.186;2023-04-03T15:21:57;6.70;99.20
47921;DHT22;33686;48.770;9.186;2023-04-03T15:24:23;6.90;98.80
47921;DHT22;33686;48.770;9.186;2023-04-03T15:26:48;6.80;98.70
47921;DHT22;33686;48.770;9.186;2023-04-03T15:29:14;6.80;98.30
47921;DHT22;33686;48.770;9.186;2023-04-03T15:31:39;6.80;98.20
47921;DHT22;33686;48.770;9.186;2023-04-03T15:34:05;6.90;98.20
47921;DHT22;33686;48.770;9.186;2023-04-03T15:36:31;6.70;97.20
47921;DHT22;33686;48.770;9.186;2023-04-03T15:38:56;6.40;98.10
47921;DHT22;33686;48.770;9.186;2023-04-03T15:41:22;6.40;97.90
47921;DHT22;33686;48.770;9.186;2023-04-03T15:43:47;6.20;98.30
47921;DHT22;33686;48.770;9.186;2023-04-03T15:46:13;6.20;98.50
47921;DHT22;33686;48.770;9.186;2023-04-03T15:48:38;6.10;98.90
47921;DHT22;33686;48.770;9.186;2023-04-03T15:51:05;6.10;99.00
47921;DHT22;33686;48.770;9.186;2023-04-03T15:53:30;6.20;99.00
47921;DHT22;33686;48.770;9.186;2023-04-03T15:55:56;6.30;99.00
47921;DHT22;33686;48.770;9.186;2023-04-03T15:58:21;6.40;98.60
47921;DHT22;33686;48.770;9.186;2023-04-03T16:00:47;6.50;98.30
47921;DHT22;33686;48.770;9.186;2023-04-03T16:03:15;6.40;98.30
47921;DHT22;33686;48.770;9.186;2023-04-03T16:05:41;6.50;98.40
47921;DHT22;33686;48.770;9.186;2023-04-03T16:08:07;6.60;98.40
47921;DHT22;33686;48.770;9.186;2023-04-03T16:10:33;6.60;98.00
47921;DHT22;33686;48.770;9.186;2023-04-03T16:12:59;6.70;97.50
47921;DHT22;33686;48.770;9.186;2023-04-03T16:15:25;6.80;97.70
47921;DHT22;33686;48.770;9.186;2023-04-03T16:17:52;6.70;97.50
47921;DHT22;33686;48.770;9.186;2023-04-03T16:20:17;6.50;97.60
47921;DHT22;33686;48.770;9.186;2023-04-03T16:22:44;6.30;97.80
47921;DHT22;33686;48.770;9.186;2023-04-03T16:25:09;6.40;97.40
47921;DHT22;33686;48.770;9.186;2023-04-03T16:27:35;6.40;97.10
47921;DHT22;33686;48.770;9.186;2023-04-03T16:30:01;6.40;97.30
47921;DHT22;33686;48.770;9.186;2023-04-03T16:32:27;6.30;97.30
47921;DHT22;33686;48.770;9.186;2023-04-03T16:34:54;6.30;96.90
47921;DHT22;33686;48.770;9.186;2023-04-03T16:37:20;6.20;97.00
47921;DHT22;33686;48.770;9.186;2023-04-03T16:39:45;6.20;97.00
47921;DHT22;33686;48.770;9.186;2023-04-03T16:42:11;6.30;97.10
47921;DHT22;33686;48.770;9.186;2023-04-03T16:44:37;6.30;97.10
47921;DHT22;33686;48.770;9.186;2023-04-03T16:47:03;6.30;97.20
47921;DHT22;33686;48.770;9.186;2023-04-03T16:49:28;6.30;97.10
47921;DHT22;33686;48.770;9.186;2023-04-03T16:51:58;6.40;97.10
47921;DHT22;33686;48.770;9.186;2023-04-03T16:54:23;6.30;97.30
47921;DHT22;33686;48.770;9.186;2023-04-03T16:56:49;6.40;97.60
47921;DHT22;33686;48.770;9.186;2023-04-03T16:59:15;6.50;97.80
47921;DHT22;33686;48.770;9.186;2023-04-03T17:01:41;6.50;97.80
47921;DHT22;33686;48.770;9.186;2023-04-03T17:04:06;6.50;97.90
47921;DHT22;33686;48.770;9.186;2023-04-03T17:06:32;6.60;97.70
47921;DHT22;33686;48.770;9.186;2023-04-03T17:08:57;6.50;97.70
47921;DHT22;33686;48.770;9.186;2023-04-03T17:11:26;6.40;98.20
47921;DHT22;33686;48.770;9.186;2023-04-03T17:13:52;6.40;98.00
47921;DHT22;33686;48.770;9.186;2023-04-03T17:16:17;6.40;97.80
47921;DHT22;33686;48.770;9.186;2023-04-03T17:18:43;6.30;97.80
47921;DHT22;33686;48.770;9.186;2023-04-03T17:21:10;6.30;98.20
47921;DHT22;33686;48.770;9.186;2023-04-03T17:23:36;6.20;98.00
47921;DHT22;33686;48.770;9.186;2023-04-03T17:26:02;6.20;97.90
47921;DHT22;33686;48.770;9.186;2023-04-03T17:31:00;6.20;98.20
47921;DHT22;33686;48.770;9.186;2023-04-03T17:33:26;6.20;98.20
47921;DHT22;33686;48.770;9.186;2023-04-03T17:35:55;6.20;98.40
47921;DHT22;33686;48.770;9.186;2023-04-03T17:38:21;6.00;98.40
47921;DHT22;33686;48.770;9.186;2023-04-03T17:40:46;6.10;98.30
47921;DHT22;33686;48.770;9.186;2023-04-03T17:43:12;6.00;98.30
47921;DHT22;33686;48.770;9.186;2023-04-03T17:45:37;5.90;98.50
47921;DHT22;33686;48.770;9.186;2023-04-03T17:48:03;5.90;98.80
47921;DHT22;33686;48.770;9.186;2023-04-03T17:50:29;5.90;98.60
47921;DHT22;33686;48.770;9.186;2023-04-03T17:52:54;5.80;98.80
47921;DHT22;33686;48.770;9.186;2023-04-03T17:55:20;5.90;98.60
47921;DHT22;33686;48.770;9.186;2023-04-03T17:57:45;5.80;98.60
47921;DHT22;33686;48.770;9.186;2023-04-03T18:00:11;5.80;98.60
47921;DHT22;33686;48.770;9.186;2023-04-03T18:02:39;5.70;98.80
47921;DHT22;33686;48.770;9.186;2023-04-03T18:05:06;5.60;99.00
47921;DHT22;33686;48.770;9.186;2023-04-03T18:07:35;5.60;99.20
47921;DHT22;33686;48.770;9.186;2023-04-03T18:10:00;5.60;99.40
47921;DHT22;33686;48.770;9.186;2023-04-03T18:12:30;5.60;99.40
47921;DHT22;33686;48.770;9.186;2023-04-03T18:14:56;5.60;99.50
47921;DHT22;33686;48.770;9.186;2023-04-03T18:17:22;5.60;99.50
47921;DHT22;33686;48.770;9.186;2023-04-03T18:19:47;5.60;99.70
47921;DHT22;33686;48.770;9.186;2023-04-03T18:22:14;5.50;99.80
47921;DHT22;33686;48.770;9.186;2023-04-03T18:24:40;5.50;99.60
47921;DHT22;33686;48.770;9.186;2023-04-03T18:27:12;5.50;99.70
47921;DHT22;33686;48.770;9.186;2023-04-03T18:29:38;5.60;99.70
47921;DHT22;33686;48.770;9.186;2023-04-03T18:32:05;5.60;99.60
47921;DHT22;33686;48.770;9.186;2023-04-03T18:34:32;5.50;99.70
47921;DHT22;33686;48.770;9.186;2023-04-03T18:36:58;5.50;99.80
47921;DHT22;33686;48.770;9.186;2023-04-03T18:39:24;5.50;99.90
47921;DHT22;33686;48.770;9.186;2023-04-03T18:41:50;5.40;99.90
47921;DHT22;33686;48.770;9.186;2023-04-03T18:44:16;5.40;99.80
47921;DHT22;33686;48.770;9.186;2023-04-03T18:46:43;5.40;99.90
47921;DHT22;33686;48.770;9.186;2023-04-03T18:49:09;5.40;99.90
47921;DHT22;33686;48.770;9.186;2023-04-03T18:51:35;5.30;99.90
47921;DHT22;33686;48.770;9.186;2023-04-03T18:54:03;5.30;99.90
47921;DHT22;33686;48.770;9.186;2023-04-03T18:56:29;5.20;99.90
47921;DHT22;33686;48.770;9.186;2023-04-03T18:58:54;5.20;99.90
47921;DHT22;33686;48.770;9.186;2023-04-03T19:01:20;5.10;99.90
47921;DHT22;33686;48.770;9.186;2023-04-03T19:03:45;5.00;99.90
47921;DHT22;33686;48.770;9.186;2023-04-03T19:06:11;4.90;99.90
47921;DHT22;33686;48.770;9.186;2023-04-03T19:08:37;4.90;99.90
47921;DHT22;33686;48.770;9.186;2023-04-03T19:11:03;4.90;99.90
47921;DHT22;33686;48.770;9.186;2023-04-03T19:13:28;4.80;99.90
47921;DHT22;33686;48.770;9.186;2023-04-03T19:15:54;4.80;99.90
47921;DHT22;33686;48.770;9.186;2023-04-03T19:18:23;4.80;99.90
47921;DHT22;33686;48.770;9.186;2023-04-03T19:20:49;4.80;99.90
47921;DHT22;33686;48.770;9.186;2023-04-03T19:23:15;4.80;99.90
47921;DHT22;33686;48.770;9.186;2023-04-03T19:25:40;4.70;99.90
47921;DHT22;33686;48.770;9.186;2023-04-03T19:28:07;4.80;99.90
47921;DHT22;33686;48.770;9.186;2023-04-03T19:30:32;4.80;99.90
47921;DHT22;33686;48.770;9.186;2023-04-03T19:32:58;4.80;99.90
47921;DHT22;33686;48.770;9.186;2023-04-03T19:35:24;4.80;99.90
47921;DHT22;33686;48.770;9.186;2023-04-03T19:37:49;4.70;99.90
47921;DHT22;33686;48.770;9.186;2023-04-03T19:40:17;4.70;99.90
47921;DHT22;33686;48.770;9.186;2023-04-03T19:42:42;4.70;99.90
47921;DHT22;33686;48.770;9.186;2023-04-03T19:45:09;4.70;99.90
47921;DHT22;33686;48.770;9.186;2023-04-03T19:47:35;4.70;99.90
47921;DHT22;33686;48.770;9.186;2023-04-03T19:50:01;4.70;99.90
47921;DHT22;33686;48.770;9.186;2023-04-03T19:52:27;4.70;99.90
47921;DHT22;33686;48.770;9.186;2023-04-03T19:54:53;4.60;99.90
47921;DHT22;33686;48.770;9.186;2023-04-03T19:57:18;4.50;99.90
47921;DHT22;33686;48.770;9.186;2023-04-03T19:59:44;4.50;99.90
47921;DHT22;33686;48.770;9.186;2023-04-03T20:02:10;4.40;99.90
47921;DHT22;33686;48.770;9.186;2023-04-03T20:04:35;4.30;99.90
47921;DHT22;33686;48.770;9.186;2023-04-03T20:07:01;4.30;99.90
47921;DHT22;33686;48.770;9.186;2023-04-03T20:09:27;4.30;99.90
47921;DHT22;33686;48.770;9.186;2023-04-03T20:11:52;4.20;99.90
47921;DHT22;33686;48.770;9.186;2023-04-03T20:14:18;4.20;99.90
47921;DHT22;33686;48.770;9.186;2023-04-03T20:16:44;4.20;99.90
47921;DHT22;33686;48.770;9.186;2023-04-03T20:19:11;4.10;99.90
47921;DHT22;33686;48.770;9.186;2023-04-03T20:21:37;4.00;99.90
47921;DHT22;33686;48.770;9.186;2023-04-03T20:24:04;4.00;99.90
47921;DHT22;33686;48.770;9.186;2023-04-03T20:26:30;3.90;99.90
47921;DHT22;33686;48.770;9.186;2023-04-03T20:28:57;3.90;99.90
47921;DHT22;33686;48.770;9.186;2023-04-03T20:31:23;3.80;99.90
47921;DHT22;33686;48.770;9.186;2023-04-03T20:33:49;3.70;99.90
47921;DHT22;33686;48.770;9.186;2023-04-03T20:36:16;3.70;99.90
47921;DHT22;33686;48.770;9.186;2023-04-03T20:38:42;3.70;99.90
47921;DHT22;33686;48.770;9.186;2023-04-03T20:41:08;3.60;99.90
47921;DHT22;33686;48.770;9.186;2023-04-03T20:43:33;3.60;99.90
47921;DHT22;33686;48.770;9.186;2023-04-03T20:46:00;3.50;99.90
47921;DHT22;33686;48.770;9.186;2023-04-03T20:48:26;3.50;99.90
47921;DHT22;33686;48.770;9.186;2023-04-03T20:50:52;3.40;99.90
47921;DHT22;33686;48.770;9.186;2023-04-03T20:53:18;3.30;99.90
47921;DHT22;33686;48.770;9.186;2023-04-03T20:55:57;3.30;99.90
47921;DHT22;33686;48.770;9.186;2023-04-03T20:58:24;3.30;99.90
47921;DHT22;33686;48.770;9.186;2023-04-03T21:00:50;3.30;99.90
47921;DHT22;33686;48.770;9.186;2023-04-03T21:03:17;3.20;99.90
47921;DHT22;33686;48.770;9.186;2023-04-03T21:05:43;3.20;99.90
47921;DHT22;33686;48.770;9.186;2023-04-03T21:21:33;3.00;99.90
47921;DHT22;33686;48.770;9.186;2023-04-03T21:24:01;3.00;99.90
47921;DHT22;33686;48.770;9.186;2023-04-03T21:26:27;2.90;99.90
47921;DHT22;33686;48.770;9.186;2023-04-03T21:28:53;2.90;99.90
47921;DHT22;33686;48.770;9.186;2023-04-03T21:31:19;2.90;99.90
47921;DHT22;33686;48.770;9.186;2023-04-03T21:33:44;2.90;99.90
47921;DHT22;33686;48.770;9.186;2023-04-03T21:36:10;2.80;99.90
47921;DHT22;33686;48.770;9.186;2023-04-03T21:38:36;2.80;99.90
47921;DHT22;33686;48.770;9.186;2023-04-03T21:41:01;2.70;99.90
47921;DHT22;33686;48.770;9.186;2023-04-03T21:43:27;2.70;99.90
47921;DHT22;33686;48.770;9.186;2023-04-03T21:45:53;2.70;99.90
47921;DHT22;33686;48.770;9.186;2023-04-03T21:48:19;2.60;99.90
47921;DHT22;33686;48.770;9.186;2023-04-03T21:50:45;2.60;99.90
47921;DHT22;33686;48.770;9.186;2023-04-03T21:53:11;2.60;99.90
47921;DHT22;33686;48.770;9.186;2023-04-03T21:55:37;2.50;99.90
47921;DHT22;33686;48.770;9.186;2023-04-03T21:58:02;2.60;99.90
